Time;durP1;ratioP1;P1;durP2;ratioP2;P2;SDS_P1;SDS_P2;PMS_P1;PMS_P2;Temp;Humidity;BMP_temperature;BMP_pressure;BME280_temperature;BME280_humidity;BME280_pressure;Samples;Min_cycle;Max_cycle;Signal;HPM_P1;HPM_P2
2024/02/18 00:00:33;;;;;;;23.88;13.57;;;;;;;-145.63;100.00;61273.97;5010279;28;20045;-66
2024/02/18 00:02:59;;;;;;;21.55;13.15;;;;;;;-145.63;100.00;161903.72;5013838;28;20046;-66
2024/02/18 00:05:25;;;;;;;20.48;12.20;;;;;;;-145.63;100.00;161791.97;5011671;28;20032;-65
2024/02/18 00:07:51;;;;;;;23.80;13.05;;;;;;;-145.63;61.81;55477.09;5013836;28;20030;-67
2024/02/18 00:10:16;;;;;;;22.95;13.27;;;;;;;-145.63;100.00;162016.75;5025520;28;20053;-65
2024/02/18 00:12:42;;;;;;;23.27;13.63;;;;;;;-145.63;61.88;39192.44;5013604;28;20049;-66
2024/02/18 00:15:08;;;;;;;22.27;12.98;;;;;;;-145.63;61.84;39215.91;5008943;28;20038;-64
2024/02/18 00:17:34;;;;;;;22.67;12.23;;;;;;;-145.63;61.60;39247.19;5012444;28;20026;-66
2024/02/18 00:19:59;;;;;;;20.98;11.95;;;;;;;-145.63;62.00;39208.06;5013607;28;20026;-65
2024/02/18 00:22:25;;;;;;;19.92;12.30;;;;;;;-145.63;61.63;39235.47;5012337;28;20041;-66
2024/02/18 00:24:51;;;;;;;24.60;13.00;;;;;;;-145.63;61.56;39188.53;5002923;28;20031;-66
2024/02/18 00:27:17;;;;;;;21.13;12.32;;;;;;;-145.63;61.69;55409.53;5011426;28;20072;-65
2024/02/18 00:29:42;;;;;;;19.73;12.20;;;;;;;-145.63;61.77;55469.28;5014850;28;20490;-64
2024/02/18 00:32:08;;;;;;;20.33;12.18;;;;;;;-145.63;0.00;161770.94;5018741;28;20144;-64
2024/02/18 00:34:33;;;;;;;18.70;11.68;;;;;;;-145.63;100.00;55438.03;5012795;28;20050;-66
2024/02/18 00:36:59;;;;;;;20.27;12.70;;;;;;;-145.63;100.00;55422.38;5012313;28;20030;-64
2024/02/18 00:39:25;;;;;;;20.63;12.50;;;;;;;-145.63;61.68;55478.91;5002387;28;20052;-65
2024/02/18 00:41:50;;;;;;;20.85;12.45;;;;;;;-145.63;61.73;55441.25;5022024;28;20490;-66
2024/02/18 00:44:17;;;;;;;20.80;12.95;;;;;;;-145.63;61.73;39223.72;5033206;28;20112;-65
2024/02/18 00:46:43;;;;;;;22.30;12.77;;;;;;;-145.63;61.89;55441.69;5013768;28;20022;-66
2024/02/18 00:49:08;;;;;;;19.35;11.70;;;;;;;-145.63;62.02;39212.00;5013435;28;20366;-66
2024/02/18 00:51:34;;;;;;;18.38;11.60;;;;;;;-145.63;61.96;55438.00;5013010;28;20037;-66
2024/02/18 00:54:00;;;;;;;18.67;11.30;;;;;;;-145.63;62.17;39227.63;5016509;28;20030;-66
2024/02/18 00:56:25;;;;;;;19.75;11.80;;;;;;;-145.63;62.16;39206.13;5016964;28;20130;-65
2024/02/18 00:58:54;;;;;;;20.08;11.18;;;;;;;-145.63;62.31;55470.66;5013070;28;20026;-65
2024/02/18 01:01:20;;;;;;;22.00;12.05;;;;;;;-145.63;62.27;55520.34;5006551;28;20057;-66
2024/02/18 01:03:45;;;;;;;18.65;11.60;;;;;;;-145.63;100.00;162313.97;5012929;28;20084;-66
2024/02/18 01:06:12;;;;;;;17.65;10.43;;;;;;;-145.63;100.00;162096.97;5013007;28;20049;-66
2024/02/18 01:08:38;;;;;;;19.00;11.65;;;;;;;-145.63;62.22;39204.16;5012716;28;20038;-64
2024/02/18 01:11:04;;;;;;;18.50;11.05;;;;;;;-145.63;62.39;55564.97;5013106;28;20072;-66
2024/02/18 01:13:29;;;;;;;20.05;10.15;;;;;;;-145.63;62.00;39213.94;5013017;28;20414;-66
2024/02/18 01:15:56;;;;;;;17.98;10.80;;;;;;;-145.63;100.00;86613.53;5013086;28;20026;-66
2024/02/18 01:18:22;;;;;;;21.75;11.25;;;;;;;-145.63;0.00;161843.25;5011971;28;20030;-66
2024/02/18 01:20:47;;;;;;;16.92;10.80;;;;;;;-145.63;0.00;161811.66;5012343;28;20033;-65
2024/02/18 01:23:13;;;;;;;17.98;10.80;;;;;;;-145.63;62.26;55527.72;5012164;28;20045;-65
2024/02/18 01:25:38;;;;;;;19.10;10.68;;;;;;;-145.63;62.17;162027.28;5000988;28;20032;-65
2024/02/18 01:28:04;;;;;;;18.65;10.98;;;;;;;-145.63;0.00;162103.53;5012789;28;20040;-65
2024/02/18 01:30:30;;;;;;;18.10;10.27;;;;;;;-145.63;100.00;162066.75;5012930;28;20149;-65
2024/02/18 01:32:56;;;;;;;15.57;9.65;;;;;;;-145.63;0.00;162137.78;5013221;28;20133;-66
2024/02/18 01:35:21;;;;;;;15.88;10.35;;;;;;;-145.63;62.29;55559.00;5017103;28;20049;-65
2024/02/18 01:37:48;;;;;;;17.80;10.80;;;;;;;-145.63;62.63;55553.44;5015781;28;20038;-66
2024/02/18 01:40:14;;;;;;;15.93;9.98;;;;;;;-145.63;0.00;162098.31;5029526;28;20022;-65
2024/02/18 01:42:40;;;;;;;16.70;10.25;;;;;;;-145.63;62.62;55571.41;5017788;28;20052;-65
2024/02/18 01:45:07;;;;;;;18.20;10.07;;;;;;;-145.63;62.62;55522.13;5016681;28;20030;-65
2024/02/18 01:47:36;;;;;;;15.82;10.05;;;;;;;-145.63;62.25;39219.81;5015870;28;20053;-66
2024/02/18 01:50:03;;;;;;;15.40;9.68;;;;;;;-145.63;62.78;39286.31;5015929;28;20471;-65
2024/02/18 01:52:29;;;;;;;14.23;9.10;;;;;;;-145.63;62.76;39215.91;5016239;28;20463;-66
2024/02/18 01:54:57;;;;;;;13.65;9.30;;;;;;;-145.63;62.80;39231.53;5015980;28;20030;-66
2024/02/18 01:57:27;;;;;;;15.63;9.55;;;;;;;-145.63;62.89;39213.94;5016008;28;20022;-66
2024/02/18 01:59:59;;;;;;;13.75;9.13;;;;;;;-145.63;63.13;39241.31;5015420;28;20030;-65
2024/02/18 02:02:25;;;;;;;15.13;9.82;;;;;;;-145.63;62.95;55624.34;5016687;28;20034;-66
2024/02/18 02:04:51;;;;;;;15.75;9.20;;;;;;;-145.63;62.91;39239.38;5015736;28;20435;-66
2024/02/18 02:07:18;;;;;;;13.27;9.05;;;;;;;-145.63;0.00;162303.44;5016125;28;20467;-68
2024/02/18 02:09:45;;;;;;;14.85;8.27;;;;;;;-145.63;0.00;162246.91;5024542;28;20037;-66
2024/02/18 02:12:11;;;;;;;14.25;8.55;;;;;;;-98.24;100.00;85557.50;5020581;28;20041;-67
2024/02/18 02:14:37;;;;;;;12.52;8.75;;;;;;;-145.63;100.00;86869.81;5015972;28;20721;-67
2024/02/18 02:17:05;;;;;;;11.98;8.32;;;;;;;-145.63;0.00;162195.63;5015798;28;20037;-65
2024/02/18 02:19:30;;;;;;;14.48;9.55;;;;;;;-145.63;0.00;162235.06;5014406;28;20387;-65
2024/02/18 02:21:56;;;;;;;14.13;9.27;;;;;;;-145.63;100.00;61273.97;5016265;28;20116;-63
2024/02/18 02:24:22;;;;;;;14.43;9.15;;;;;;;-98.24;100.00;61273.97;5015386;28;20489;-65
2024/02/18 02:26:51;;;;;;;12.23;8.30;;;;;;;-98.24;100.00;61273.97;5015479;28;20490;-65
2024/02/18 02:29:17;;;;;;;13.38;8.45;;;;;;;-145.63;100.00;61273.97;5015442;28;20029;-64
2024/02/18 02:31:44;;;;;;;13.77;8.70;;;;;;;-145.63;100.00;61273.97;5015594;28;20449;-65
2024/02/18 02:34:11;;;;;;;14.90;9.30;;;;;;;-145.63;100.00;61273.97;5015465;28;20479;-65
2024/02/18 02:36:37;;;;;;;16.63;9.40;;;;;;;-145.63;100.00;61273.97;5015248;28;20529;-66
2024/02/18 02:39:03;;;;;;;12.52;8.50;;;;;;;-145.63;100.00;61273.97;5013179;28;20066;-66
2024/02/18 02:41:28;;;;;;;13.15;8.60;;;;;;;-145.63;100.00;61273.97;5014740;28;20061;-64
2024/02/18 02:43:54;;;;;;;15.00;8.43;;;;;;;-145.63;100.00;61273.97;5032499;28;20344;-65
2024/02/18 02:46:20;;;;;;;14.63;9.52;;;;;;;-145.63;100.00;61273.97;5017169;28;20088;-66
2024/02/18 02:48:47;;;;;;;13.23;8.35;;;;;;;-145.63;100.00;61273.97;5024315;28;20036;-66
2024/02/18 02:51:13;;;;;;;14.10;8.57;;;;;;;-145.63;100.00;61273.97;5022112;28;20029;-66
2024/02/18 02:53:40;;;;;;;12.80;8.55;;;;;;;-145.63;100.00;61273.97;5035436;28;20072;-65
2024/02/18 02:56:08;;;;;;;10.05;7.85;;;;;;;-145.63;100.00;61273.97;5015055;28;20026;-65
2024/02/18 02:58:34;;;;;;;11.13;7.72;;;;;;;-145.63;100.00;61273.97;5018053;28;20506;-66
2024/02/18 03:01:00;;;;;;;11.98;7.60;;;;;;;-145.63;100.00;61273.97;5018058;28;20064;-65
2024/02/18 03:03:26;;;;;;;11.45;7.43;;;;;;;-145.63;100.00;61273.97;5019182;28;20029;-66
2024/02/18 03:05:51;;;;;;;11.30;8.77;;;;;;;-145.63;100.00;61273.97;5017823;28;20579;-66
2024/02/18 03:08:17;;;;;;;12.15;8.00;;;;;;;-145.63;100.00;61273.97;5016414;28;20423;-66
2024/02/18 03:10:43;;;;;;;13.02;8.43;;;;;;;-145.63;100.00;61273.97;5005358;28;20057;-66
2024/02/18 03:13:09;;;;;;;10.88;8.18;;;;;;;-145.63;100.00;61273.97;5015095;28;20030;-66
2024/02/18 03:15:35;;;;;;;12.32;8.48;;;;;;;-145.63;100.00;61273.97;5014756;28;20053;-65
2024/02/18 03:18:05;;;;;;;8.85;6.35;;;;;;;-145.63;100.00;61273.97;5015400;28;20458;-65
2024/02/18 03:20:32;;;;;;;10.40;7.32;;;;;;;-145.63;100.00;61273.97;5013552;28;20042;-65
2024/02/18 03:22:58;;;;;;;12.07;7.75;;;;;;;-145.63;100.00;61273.97;5014428;28;20120;-66
2024/02/18 03:25:23;;;;;;;10.00;7.38;;;;;;;-145.63;100.00;61273.97;5003410;28;20504;-65
2024/02/18 03:27:49;;;;;;;10.20;7.28;;;;;;;-145.63;100.00;61273.97;5014492;28;20065;-67
2024/02/18 03:30:15;;;;;;;11.45;7.70;;;;;;;-145.63;100.00;61273.97;5014460;28;20045;-66
2024/02/18 03:32:41;;;;;;;11.05;7.68;;;;;;;-145.63;100.00;61273.97;5014403;28;20132;-66
2024/02/18 03:35:07;;;;;;;10.80;7.07;;;;;;;-145.63;100.00;61273.97;5014406;28;20492;-66
2024/02/18 03:37:33;;;;;;;9.43;6.38;;;;;;;-145.63;100.00;61273.97;5013968;28;20049;-67
2024/02/18 03:39:59;;;;;;;10.73;7.28;;;;;;;-145.63;100.00;61273.97;5008513;28;20080;-65
2024/02/18 03:42:25;;;;;;;9.20;6.97;;;;;;;-145.63;100.00;61273.97;5013086;28;20467;-64
2024/02/18 03:44:51;;;;;;;9.80;6.40;;;;;;;-145.63;100.00;61273.97;5013341;28;20100;-67
2024/02/18 03:47:23;;;;;;;10.73;7.25;;;;;;;-145.63;100.00;61273.97;5009283;28;20048;-67
2024/02/18 03:49:51;;;;;;;11.13;6.72;;;;;;;-145.63;100.00;61273.97;5014074;28;20025;-65
2024/02/18 03:52:17;;;;;;;8.50;6.90;;;;;;;-145.63;100.00;61273.97;5013429;28;20037;-66
2024/02/18 03:54:43;;;;;;;13.32;7.68;;;;;;;-145.63;100.00;61273.97;5014113;28;20026;-67
2024/02/18 03:57:08;;;;;;;8.38;6.18;;;;;;;-145.63;100.00;61273.97;5013780;28;20041;-65
2024/02/18 03:59:34;;;;;;;10.18;7.15;;;;;;;-145.63;100.00;61273.97;5014573;28;20022;-66
2024/02/18 04:02:00;;;;;;;10.65;6.85;;;;;;;-145.63;100.00;61273.97;5008122;28;20061;-67
2024/02/18 04:04:25;;;;;;;10.07;6.90;;;;;;;-145.63;100.00;61273.97;5013982;28;20140;-66
2024/02/18 04:06:51;;;;;;;9.30;7.22;;;;;;;-145.63;100.00;61273.97;5013266;28;20037;-66
2024/02/18 04:09:17;;;;;;;8.02;6.07;;;;;;;-145.63;100.00;61273.97;5013811;28;20129;-67
2024/02/18 04:11:42;;;;;;;10.75;7.80;;;;;;;-145.63;100.00;61273.97;5013573;28;20466;-66
2024/02/18 04:14:08;;;;;;;8.57;6.30;;;;;;;-145.63;100.00;61273.97;5013789;28;20033;-67
2024/02/18 04:16:34;;;;;;;8.75;6.90;;;;;;;-145.63;100.00;61273.97;5008441;28;20045;-66
2024/02/18 04:18:59;;;;;;;8.85;6.63;;;;;;;-145.63;100.00;61273.97;5013469;28;20030;-66
2024/02/18 04:21:25;;;;;;;10.82;6.50;;;;;;;-145.63;100.00;61273.97;5013394;28;20029;-67
2024/02/18 04:23:51;;;;;;;10.55;6.38;;;;;;;-145.63;100.00;61273.97;5013029;28;20033;-67
2024/02/18 04:26:17;;;;;;;7.53;6.38;;;;;;;-145.63;100.00;61273.97;5013314;28;20037;-65
2024/02/18 04:28:45;;;;;;;7.25;6.28;;;;;;;-145.63;100.00;61273.97;5009106;28;20412;-66
2024/02/18 04:31:10;;;;;;;9.77;6.68;;;;;;;-145.63;100.00;61273.97;5004119;28;20034;-66
2024/02/18 04:33:36;;;;;;;10.48;6.88;;;;;;;-145.63;100.00;61273.97;5013217;28;20480;-66
2024/02/18 04:36:03;;;;;;;8.57;6.38;;;;;;;-145.63;100.00;61273.97;5013260;28;20052;-67
2024/02/18 04:38:28;;;;;;;10.50;6.25;;;;;;;-145.63;100.00;61273.97;5012803;28;20037;-66
2024/02/18 04:40:54;;;;;;;8.77;6.78;;;;;;;-145.63;100.00;61273.97;5012652;28;20022;-67
2024/02/18 04:43:20;;;;;;;9.23;7.03;;;;;;;-145.63;100.00;61273.97;5012516;28;20116;-67
2024/02/18 04:45:46;;;;;;;9.43;6.30;;;;;;;-145.63;100.00;61273.97;5013143;28;20065;-66
2024/02/18 04:48:12;;;;;;;8.82;6.90;;;;;;;-145.63;100.00;61273.97;5012685;28;20025;-67
2024/02/18 04:50:38;;;;;;;9.55;6.60;;;;;;;-145.63;100.00;61273.97;5012626;28;20084;-65
2024/02/18 04:53:04;;;;;;;9.30;6.18;;;;;;;-145.63;100.00;61273.97;5012841;28;20041;-69
2024/02/18 04:55:30;;;;;;;15.93;6.82;;;;;;;-145.63;100.00;61273.97;5012657;28;20025;-66
2024/02/18 04:57:55;;;;;;;11.40;6.43;;;;;;;-145.63;100.00;61273.97;5012682;28;20076;-67
2024/02/18 05:00:21;;;;;;;7.68;5.13;;;;;;;-145.63;100.00;61273.97;5012987;28;20120;-66
2024/02/18 05:02:47;;;;;;;6.40;4.97;;;;;;;-145.63;100.00;61273.97;5012775;28;20037;-66
2024/02/18 05:05:13;;;;;;;6.22;5.22;;;;;;;-145.63;100.00;61273.97;5012121;28;20030;-66
2024/02/18 05:07:39;;;;;;;9.52;6.03;;;;;;;-145.63;100.00;61273.97;5012273;28;20026;-66
2024/02/18 05:10:06;;;;;;;8.15;5.63;;;;;;;-145.63;100.00;61273.97;5016958;28;20034;-66
2024/02/18 05:12:32;;;;;;;7.55;5.07;;;;;;;-145.63;100.00;61273.97;5016599;28;20030;-66
2024/02/18 05:14:58;;;;;;;8.30;5.32;;;;;;;-145.63;100.00;61273.97;5017768;28;20029;-66
2024/02/18 05:17:24;;;;;;;7.78;5.45;;;;;;;-145.63;100.00;61273.97;5019643;28;20038;-67
2024/02/18 05:19:51;;;;;;;6.35;4.78;;;;;;;-145.63;100.00;61273.97;5016595;28;20096;-66
2024/02/18 05:22:19;;;;;;;9.85;4.50;;;;;;;-145.63;100.00;61273.97;5016521;28;20029;-68
2024/02/18 05:24:46;;;;;;;7.65;4.97;;;;;;;-145.63;100.00;61273.97;5015898;28;20033;-67
2024/02/18 05:27:12;;;;;;;7.18;4.75;;;;;;;-145.63;100.00;61273.97;5016306;28;20034;-67
2024/02/18 05:29:37;;;;;;;5.53;4.30;;;;;;;-145.63;100.00;61273.97;5016189;28;20045;-67
2024/02/18 05:32:04;;;;;;;8.38;4.47;;;;;;;-145.63;100.00;61273.97;5016109;28;20100;-69
2024/02/18 05:34:29;;;;;;;9.70;5.43;;;;;;;-145.63;100.00;61273.97;5016150;28;20037;-68
2024/02/18 05:36:55;;;;;;;7.57;4.63;;;;;;;-145.63;100.00;61273.97;5016549;28;20040;-67
2024/02/18 05:39:21;;;;;;;6.57;4.30;;;;;;;-145.63;100.00;61273.97;5014304;28;20728;-67
2024/02/18 05:41:46;;;;;;;6.78;4.13;;;;;;;-145.63;100.00;61273.97;5016637;28;20479;-68
2024/02/18 05:44:12;;;;;;;5.28;3.72;;;;;;;-145.63;100.00;61273.97;5015466;28;20042;-67
2024/02/18 05:46:38;;;;;;;9.77;4.03;;;;;;;-145.63;100.00;61273.97;5015860;28;20046;-68
2024/02/18 05:49:04;;;;;;;7.70;4.05;;;;;;;-145.63;100.00;61273.97;5015896;28;20037;-68
2024/02/18 05:51:31;;;;;;;6.85;3.70;;;;;;;-145.63;100.00;61273.97;5015353;28;20026;-66
2024/02/18 05:53:57;;;;;;;3.65;3.05;;;;;;;-145.63;100.00;61273.97;5016551;28;20118;-67
2024/02/18 05:56:23;;;;;;;6.40;3.22;;;;;;;-145.63;100.00;61273.97;5016032;28;20031;-67
2024/02/18 05:58:49;;;;;;;5.32;2.92;;;;;;;-145.63;100.00;61273.97;5015789;28;20068;-68
2024/02/18 06:01:15;;;;;;;4.45;3.45;;;;;;;-145.63;100.00;61273.97;5018623;28;20056;-68
2024/02/18 06:03:41;;;;;;;4.10;2.83;;;;;;;-145.63;100.00;61273.97;5015865;28;20037;-67
2024/02/18 06:06:09;;;;;;;4.20;2.60;;;;;;;-145.63;100.00;61273.97;5014691;28;20021;-69
2024/02/18 06:08:34;;;;;;;4.18;2.85;;;;;;;-145.63;100.00;61273.97;5015851;28;20613;-67
2024/02/18 06:11:00;;;;;;;5.70;2.97;;;;;;;-145.63;100.00;61273.97;5013262;28;20029;-67
2024/02/18 06:13:26;;;;;;;4.25;3.20;;;;;;;-145.63;100.00;61273.97;5015068;28;20033;-66
2024/02/18 06:15:51;;;;;;;4.68;3.17;;;;;;;-145.63;100.00;61273.97;5015675;28;20045;-68
2024/02/18 06:18:17;;;;;;;4.35;2.60;;;;;;;-145.63;100.00;61273.97;5013001;28;20049;-66
2024/02/18 06:20:44;;;;;;;3.95;2.55;;;;;;;-145.63;100.00;61273.97;5001407;28;20412;-67
2024/02/18 06:23:10;;;;;;;4.78;2.83;;;;;;;-145.63;100.00;61273.97;5015696;28;20058;-67
2024/02/18 06:25:37;;;;;;;3.70;2.47;;;;;;;-145.63;100.00;61273.97;5014522;28;20119;-67
2024/02/18 06:28:09;;;;;;;2.97;2.60;;;;;;;-145.63;100.00;61273.97;5015295;28;20172;-67
2024/02/18 06:30:35;;;;;;;4.40;2.72;;;;;;;-145.63;100.00;61273.97;5014733;28;20037;-66
2024/02/18 06:33:02;;;;;;;6.10;2.38;;;;;;;-145.63;100.00;61273.97;5016240;28;20061;-68
2024/02/18 06:35:27;;;;;;;4.40;2.50;;;;;;;-145.63;100.00;61273.97;5034269;28;20042;-68
2024/02/18 06:37:53;;;;;;;4.32;2.72;;;;;;;-145.63;100.00;61273.97;5015370;28;20383;-68
2024/02/18 06:40:19;;;;;;;2.97;2.35;;;;;;;-145.63;100.00;61273.97;5013404;28;20037;-68
2024/02/18 06:42:44;;;;;;;2.50;2.08;;;;;;;-145.63;100.00;61273.97;5011858;28;20487;-68
2024/02/18 06:45:10;;;;;;;2.88;2.38;;;;;;;-145.63;100.00;61273.97;5011714;28;20032;-67
2024/02/18 06:47:36;;;;;;;2.42;1.90;;;;;;;-145.63;100.00;61273.97;5012935;28;20026;-66
2024/02/18 06:50:03;;;;;;;3.20;2.50;;;;;;;-145.63;100.00;61273.97;5012960;28;20038;-68
2024/02/18 06:52:30;;;;;;;3.33;1.95;;;;;;;-145.63;100.00;61273.97;5014810;28;20030;-68
2024/02/18 06:54:55;;;;;;;3.40;1.90;;;;;;;-145.63;100.00;61273.97;5007784;28;20400;-68
2024/02/18 06:57:22;;;;;;;2.08;1.88;;;;;;;-145.63;100.00;61273.97;5007854;28;20125;-68
2024/02/18 06:59:49;;;;;;;2.42;2.00;;;;;;;-145.63;100.00;61273.97;5014685;28;20080;-67
2024/02/18 07:02:14;;;;;;;7.82;2.40;;;;;;;-145.63;100.00;61273.97;5013281;28;20442;-68
2024/02/18 07:04:40;;;;;;;3.15;2.13;;;;;;;-145.63;100.00;61273.97;5010633;28;20117;-68
2024/02/18 07:07:06;;;;;;;2.90;2.03;;;;;;;-145.63;100.00;61273.97;5013399;28;20029;-68
2024/02/18 07:09:31;;;;;;;3.38;2.17;;;;;;;-145.63;100.00;61273.97;5011952;28;20061;-67
2024/02/18 07:11:57;;;;;;;3.75;2.35;;;;;;;-145.63;100.00;61273.97;5014321;28;20030;-66
2024/02/18 07:14:23;;;;;;;2.35;2.03;;;;;;;-145.63;100.00;61273.97;5011791;28;20030;-68
2024/02/18 07:16:48;;;;;;;4.13;2.60;;;;;;;-145.63;100.00;61273.97;5009637;28;20117;-67
2024/02/18 07:19:14;;;;;;;5.82;2.42;;;;;;;-145.63;100.00;61273.97;5014395;28;20034;-67
2024/02/18 07:21:40;;;;;;;4.32;2.33;;;;;;;-145.63;100.00;61273.97;5013563;28;20026;-67
2024/02/18 07:24:06;;;;;;;5.80;2.80;;;;;;;-145.63;100.00;61273.97;5014719;28;20460;-67
2024/02/18 07:26:32;;;;;;;2.75;2.10;;;;;;;-145.63;100.00;61273.97;5013542;28;20022;-66
2024/02/18 07:28:57;;;;;;;4.50;2.10;;;;;;;-145.63;100.00;61273.97;5013936;28;20187;-67
2024/02/18 07:31:23;;;;;;;2.22;1.83;;;;;;;-145.63;100.00;61273.97;5013241;28;20133;-69
2024/02/18 07:33:49;;;;;;;2.97;1.95;;;;;;;-145.63;100.00;61273.97;5010478;28;20053;-65
2024/02/18 07:36:14;;;;;;;5.85;2.20;;;;;;;-145.63;100.00;61273.97;5014635;28;20447;-67
2024/02/18 07:38:40;;;;;;;2.05;1.50;;;;;;;-145.63;100.00;61273.97;5012904;28;20030;-67
2024/02/18 07:41:06;;;;;;;3.67;1.90;;;;;;;-145.63;100.00;61273.97;5012139;28;20033;-65
2024/02/18 07:43:32;;;;;;;2.30;2.05;;;;;;;-145.63;100.00;61273.97;5013480;28;20037;-66
2024/02/18 07:45:57;;;;;;;3.33;2.38;;;;;;;-145.63;100.00;61273.97;5010558;28;20025;-66
2024/02/18 07:48:23;;;;;;;3.60;2.10;;;;;;;-145.63;100.00;61273.97;5010243;28;20394;-68
2024/02/18 07:50:48;;;;;;;4.82;2.75;;;;;;;-145.63;100.00;61273.97;4998834;28;20030;-66
2024/02/18 07:53:14;;;;;;;2.72;2.40;;;;;;;-145.63;100.00;61273.97;5013636;28;20026;-65
2024/02/18 07:55:40;;;;;;;4.30;2.40;;;;;;;-145.63;100.00;61273.97;5004667;28;20520;-66
2024/02/18 07:58:06;;;;;;;2.53;2.17;;;;;;;-145.63;100.00;61273.97;5012587;28;20065;-67
2024/02/18 08:00:31;;;;;;;5.90;2.58;;;;;;;-145.63;100.00;61273.97;5013356;28;20026;-65
2024/02/18 08:03:00;;;;;;;2.72;2.17;;;;;;;-145.63;100.00;61273.97;5013059;28;20638;-67
2024/02/18 08:05:26;;;;;;;3.00;2.67;;;;;;;-145.63;100.00;61273.97;5013565;28;20117;-66
2024/02/18 08:07:52;;;;;;;3.08;2.47;;;;;;;-145.63;100.00;61273.97;5013261;28;20121;-66
2024/02/18 08:10:17;;;;;;;6.13;2.20;;;;;;;-145.63;100.00;61273.97;5012783;28;20436;-66
2024/02/18 08:12:43;;;;;;;4.47;2.58;;;;;;;-145.63;100.00;61273.97;5013510;28;20093;-67
2024/02/18 08:15:09;;;;;;;2.03;1.80;;;;;;;-145.63;100.00;61273.97;5013417;28;20034;-64
2024/02/18 08:17:35;;;;;;;6.32;2.30;;;;;;;-145.63;100.00;61273.97;5012787;28;20037;-66
2024/02/18 08:20:00;;;;;;;3.10;2.25;;;;;;;-145.63;100.00;61273.97;5012829;28;20058;-65
2024/02/18 08:22:26;;;;;;;1.80;1.50;;;;;;;-145.63;100.00;61273.97;5012933;28;20030;-66
2024/02/18 08:24:52;;;;;;;2.22;1.30;;;;;;;-145.63;100.00;61273.97;5012635;28;20038;-65
2024/02/18 08:27:17;;;;;;;2.00;1.48;;;;;;;-145.63;100.00;61273.97;5012469;28;20037;-66
2024/02/18 08:29:43;;;;;;;2.38;1.52;;;;;;;-145.63;100.00;61273.97;5012216;28;20034;-66
2024/02/18 08:32:09;;;;;;;2.50;1.58;;;;;;;-145.63;100.00;61273.97;5012447;28;20049;-66
2024/02/18 08:34:35;;;;;;;4.68;2.17;;;;;;;-145.63;100.00;61273.97;5012719;28;20553;-65
2024/02/18 08:37:01;;;;;;;4.63;1.90;;;;;;;-145.63;100.00;61273.97;5012583;28;20034;-67
2024/02/18 08:39:27;;;;;;;3.85;1.80;;;;;;;-145.63;100.00;61273.97;5012780;28;20042;-67
2024/02/18 08:41:52;;;;;;;1.60;1.50;;;;;;;-145.63;100.00;61273.97;5012968;28;20022;-65
2024/02/18 08:44:18;;;;;;;5.30;1.73;;;;;;;-145.63;100.00;61273.97;5024845;28;20025;-66
2024/02/18 08:46:47;;;;;;;3.95;1.88;;;;;;;-145.63;100.00;61273.97;5013267;28;20053;-66
2024/02/18 08:49:13;;;;;;;6.43;2.00;;;;;;;-145.63;100.00;61273.97;5012209;28;20112;-65
2024/02/18 08:51:39;;;;;;;2.80;1.67;;;;;;;-145.63;100.00;61273.97;5012605;28;20030;-66
2024/02/18 08:54:11;;;;;;;3.00;2.20;;;;;;;-145.63;100.00;61273.97;5012996;28;20033;-66
2024/02/18 08:56:36;;;;;;;1.90;1.70;;;;;;;-145.63;100.00;61273.97;5012680;28;20040;-66
2024/02/18 08:59:02;;;;;;;2.85;1.73;;;;;;;-145.63;100.00;61273.97;5007703;28;20126;-69
2024/02/18 09:01:28;;;;;;;3.45;1.50;;;;;;;-145.63;100.00;61273.97;5008761;28;20025;-66
2024/02/18 09:03:53;;;;;;;2.60;1.60;;;;;;;-145.63;100.00;61273.97;5011198;28;20036;-67
2024/02/18 09:06:19;;;;;;;4.35;1.77;;;;;;;-145.63;100.00;61273.97;5011879;28;20458;-64
2024/02/18 09:08:45;;;;;;;3.45;1.80;;;;;;;-145.63;100.00;61273.97;5012784;28;20092;-65
2024/02/18 09:11:11;;;;;;;2.92;1.40;;;;;;;-145.63;100.00;61273.97;5009995;28;20506;-65
2024/02/18 09:13:37;;;;;;;5.03;1.60;;;;;;;-145.63;100.00;61273.97;5012468;28;20038;-66
2024/02/18 09:16:03;;;;;;;5.57;1.70;;;;;;;-145.63;100.00;61273.97;5012263;28;20030;-65
2024/02/18 09:18:29;;;;;;;2.47;1.58;;;;;;;-145.63;100.00;61273.97;5012393;28;20422;-66
2024/02/18 09:20:55;;;;;;;2.85;1.40;;;;;;;-145.63;100.00;61273.97;5012376;28;20038;-64
2024/02/18 09:23:20;;;;;;;2.28;1.85;;;;;;;-145.63;100.00;61273.97;5012161;28;20124;-67
2024/02/18 09:25:47;;;;;;;3.55;1.60;;;;;;;-145.63;100.00;61273.97;5007645;28;20090;-63
2024/02/18 09:28:14;;;;;;;2.13;1.63;;;;;;;-145.63;100.00;61273.97;5005445;28;20030;-66
2024/02/18 09:30:42;;;;;;;4.22;1.98;;;;;;;-145.63;100.00;61273.97;5011654;28;20084;-68
2024/02/18 09:33:07;;;;;;;2.75;1.95;;;;;;;-145.63;100.00;61273.97;5011140;28;20046;-65
2024/02/18 09:35:34;;;;;;;4.30;2.00;;;;;;;-145.63;100.00;61273.97;5012342;28;20054;-65
2024/02/18 09:38:00;;;;;;;2.80;1.98;;;;;;;-145.63;100.00;61273.97;5011590;28;20391;-65
2024/02/18 09:40:26;;;;;;;6.25;2.30;;;;;;;-145.63;100.00;61273.97;5013322;28;20033;-66
2024/02/18 09:42:53;;;;;;;2.83;2.08;;;;;;;-145.63;100.00;61273.97;5013550;28;20057;-67
2024/02/18 09:45:26;;;;;;;8.18;3.97;;;;;;;-145.63;100.00;61273.97;5010214;28;20072;-66
2024/02/18 09:47:53;;;;;;;3.78;2.30;;;;;;;-145.63;100.00;61273.97;5009144;28;20034;-66
2024/02/18 09:50:19;;;;;;;4.07;1.75;;;;;;;-145.63;100.00;61273.97;5010694;28;20041;-66
2024/02/18 09:52:46;;;;;;;1.25;1.15;;;;;;;-145.63;100.00;61273.97;5011382;28;20034;-65
2024/02/18 09:55:12;;;;;;;2.72;1.33;;;;;;;-145.63;100.00;61273.97;5014579;28;20038;-65
2024/02/18 09:57:38;;;;;;;2.17;1.60;;;;;;;-145.63;100.00;61273.97;5013577;28;20046;-65
2024/02/18 10:00:08;;;;;;;4.50;2.03;;;;;;;-145.63;100.00;61273.97;5016004;28;20075;-64
2024/02/18 10:02:35;;;;;;;9.48;4.93;;;;;;;-145.63;100.00;61273.97;5013959;28;20030;-65
2024/02/18 10:05:00;;;;;;;2.53;1.83;;;;;;;-145.63;100.00;61273.97;5015938;28;20042;-65
2024/02/18 10:07:27;;;;;;;4.57;1.73;;;;;;;-145.63;100.00;61273.97;5015850;28;20050;-66
2024/02/18 10:09:52;;;;;;;2.75;1.40;;;;;;;-145.63;100.00;61273.97;5015851;28;20045;-65
2024/02/18 10:12:19;;;;;;;4.95;1.98;;;;;;;-145.63;100.00;61273.97;5014451;28;20371;-66
2024/02/18 10:14:58;;;;;;;12.88;7.10;;;;;;;-145.63;100.00;61273.97;5016016;28;20046;-68
2024/02/18 10:17:26;;;;;;;4.38;1.98;;;;;;;-145.63;100.00;61273.97;5013375;28;20034;-67
2024/02/18 10:19:52;;;;;;;3.78;1.60;;;;;;;-145.63;100.00;61273.97;5015506;28;20758;-65
2024/02/18 10:22:17;;;;;;;3.13;1.63;;;;;;;-145.63;100.00;61273.97;5015149;28;20033;-64
2024/02/18 10:24:43;;;;;;;1.50;1.35;;;;;;;-145.63;100.00;61273.97;5016055;28;20065;-65
2024/02/18 10:27:09;;;;;;;1.50;1.40;;;;;;;-145.63;100.00;61273.97;5015189;28;20038;-66
2024/02/18 10:29:37;;;;;;;3.42;1.35;;;;;;;-145.63;100.00;61273.97;5015820;28;20037;-67
2024/02/18 10:32:03;;;;;;;3.25;1.67;;;;;;;-145.63;100.00;61273.97;5012604;28;20176;-66
2024/02/18 10:34:29;;;;;;;2.25;1.80;;;;;;;-145.63;100.00;61273.97;5015477;28;20048;-65
2024/02/18 10:37:05;;;;;;;2.47;1.60;;;;;;;-145.63;100.00;61273.97;5016869;28;20044;-66
2024/02/18 10:39:34;;;;;;;3.05;1.70;;;;;;;-145.63;100.00;61273.97;5017537;28;20038;-64
2024/02/18 10:42:03;;;;;;;3.42;1.80;;;;;;;-145.63;100.00;61273.97;5021631;28;20040;-65
2024/02/18 10:44:32;;;;;;;2.05;1.45;;;;;;;-145.63;100.00;61273.97;5013883;28;20037;-67
2024/02/18 10:46:59;;;;;;;6.38;3.38;;;;;;;-145.63;100.00;61273.97;5015030;28;20022;-67
2024/02/18 10:49:31;;;;;;;3.85;2.40;;;;;;;-145.63;100.00;61273.97;5015131;28;20396;-66
2024/02/18 10:52:20;;;;;;;2.45;1.60;;;;;;;-145.63;100.00;61273.97;5019073;28;20029;-65
2024/02/18 10:54:54;;;;;;;2.50;1.65;;;;;;;-145.63;100.00;61273.97;5015045;28;20030;-64
2024/02/18 10:57:25;;;;;;;2.60;1.85;;;;;;;-145.63;100.00;61273.97;5014473;28;20058;-66
2024/02/18 10:59:51;;;;;;;3.92;2.40;;;;;;;-145.63;100.00;61273.97;5009196;28;20040;-64
2024/02/18 11:02:32;;;;;;;4.88;2.20;;;;;;;-145.63;100.00;61273.97;5015867;28;20030;-66